Time;durP1;ratioP1;P1;durP2;ratioP2;P2;SDS_P1;SDS_P2;PMS_P1;PMS_P2;Temp;Humidity;BMP_temperature;BMP_pressure;BME280_temperature;BME280_humidity;BME280_pressure;Samples;Min_cycle;Max_cycle;Signal;HPM_P1;HPM_P2
2021/03/17 00:01:23;;;;;;;2.60;2.40;;;;;;;4.27;86.10;99875.25;2018038;77;20332;-64
2021/03/17 00:04:25;;;;;;;2.14;2.04;;;;;;;4.25;86.21;99871.78;2022111;80;20378;-65
2021/03/17 00:07:27;;;;;;;2.05;1.95;;;;;;;4.20;86.15;99873.34;2022459;80;20308;-64
2021/03/17 00:10:32;;;;;;;3.38;2.38;;;;;;;4.16;86.33;99868.97;2021613;80;21250;-64
2021/03/17 00:13:34;;;;;;;2.41;2.21;;;;;;;4.16;86.67;99872.41;2020124;80;20336;-64
2021/03/17 00:16:36;;;;;;;2.84;2.64;;;;;;;4.13;86.77;99863.69;2017517;77;23988;-64
2021/03/17 00:19:37;;;;;;;2.55;2.36;;;;;;;4.12;86.83;99865.41;2015470;80;20669;-65
2021/03/17 00:22:39;;;;;;;2.38;2.25;;;;;;;4.11;86.98;99863.66;2014965;80;20883;-64
2021/03/17 00:25:42;;;;;;;2.70;2.50;;;;;;;4.12;87.13;99870.53;2014923;80;20443;-64
2021/03/17 00:28:44;;;;;;;2.22;2.13;;;;;;;4.12;87.10;99874.81;2015432;80;20327;-65
2021/03/17 00:31:46;;;;;;;3.53;2.05;;;;;;;4.08;87.12;99870.41;2016943;77;22224;-64
2021/03/17 00:34:48;;;;;;;2.78;2.58;;;;;;;4.06;87.39;99872.06;2059373;70;20369;-65
2021/03/17 00:37:49;;;;;;;2.51;2.31;;;;;;;4.06;87.41;99865.25;2010023;80;21182;-64
2021/03/17 00:40:51;;;;;;;2.88;2.67;;;;;;;4.06;87.36;99862.66;2009327;80;20353;-64
2021/03/17 00:43:52;;;;;;;2.91;2.71;;;;;;;4.08;87.29;99863.56;2013098;80;20359;-64
2021/03/17 00:46:54;;;;;;;2.55;2.35;;;;;;;4.07;87.23;99866.09;2009503;80;20541;-64
2021/03/17 00:49:56;;;;;;;2.81;2.46;;;;;;;4.06;87.28;99861.78;2009774;80;20335;-64
2021/03/17 00:52:58;;;;;;;3.21;2.53;;;;;;;4.01;87.36;99863.38;2010127;80;20307;-64
2021/03/17 00:55:59;;;;;;;2.85;2.65;;;;;;;4.00;87.57;99856.50;2010066;80;21259;-64
2021/03/17 00:59:01;;;;;;;2.61;2.41;;;;;;;3.99;87.57;99863.31;2010554;80;20359;-64
2021/03/17 01:02:03;;;;;;;3.10;2.90;;;;;;;3.97;87.56;99858.97;2013154;77;24187;-64
2021/03/17 01:05:05;;;;;;;2.58;2.38;;;;;;;3.94;87.41;99857.16;2014859;80;20366;-64
2021/03/17 01:08:07;;;;;;;2.95;2.60;;;;;;;3.90;87.28;99848.50;2015503;80;20293;-64
2021/03/17 01:11:09;;;;;;;2.79;2.60;;;;;;;3.86;87.13;99856.06;2014348;80;20355;-65
2021/03/17 01:14:11;;;;;;;3.29;2.99;;;;;;;3.79;86.89;99843.91;2016042;80;20313;-64
2021/03/17 01:17:13;;;;;;;2.80;2.60;;;;;;;3.73;86.92;99844.56;2011809;77;20318;-64
2021/03/17 01:20:17;;;;;;;2.50;2.33;;;;;;;3.68;87.01;99850.38;2011783;80;20381;-64
2021/03/17 01:23:18;;;;;;;2.56;2.39;;;;;;;3.59;86.91;99849.31;2011531;80;20310;-64
2021/03/17 01:26:20;;;;;;;3.59;2.81;;;;;;;3.55;86.84;99849.13;2011699;80;21052;-64
2021/03/17 01:29:22;;;;;;;2.90;2.70;;;;;;;3.51;87.01;99853.31;2011834;80;20342;-64
2021/03/17 01:32:23;;;;;;;2.59;2.39;;;;;;;3.46;87.09;99841.16;2014532;77;21431;-64
2021/03/17 01:35:26;;;;;;;3.10;2.90;;;;;;;3.45;87.28;99845.44;2021391;80;20904;-64
2021/03/17 01:38:27;;;;;;;3.17;2.97;;;;;;;3.46;87.23;99848.88;2022139;79;20345;-63
2021/03/17 01:41:29;;;;;;;3.04;2.84;;;;;;;3.43;87.30;99854.78;2021847;80;20346;-64
2021/03/17 01:44:31;;;;;;;3.34;2.99;;;;;;;3.45;87.33;99852.25;2022056;80;20687;-64
2021/03/17 01:47:32;;;;;;;2.92;2.72;;;;;;;3.42;87.50;99854.72;2016040;77;20616;-64
2021/03/17 01:50:49;;;;;;;3.53;3.22;;;;;;;3.40;87.56;99853.78;2016283;80;20892;-64
2021/03/17 01:53:51;;;;;;;3.61;3.31;;;;;;;3.39;87.74;99858.03;2016368;80;20345;-64
2021/03/17 01:56:52;;;;;;;3.78;3.49;;;;;;;3.42;87.92;99855.59;2016913;80;20317;-64
2021/03/17 01:59:54;;;;;;;3.45;3.15;;;;;;;3.41;87.75;99856.44;2016332;80;20313;-64
2021/03/17 02:02:56;;;;;;;3.22;2.92;;;;;;;3.38;87.61;99850.31;2019985;77;23705;-64
2021/03/17 02:05:58;;;;;;;3.22;3.01;;;;;;;3.33;87.52;99845.03;2021236;80;20349;-64
2021/03/17 02:09:01;;;;;;;3.20;3.00;;;;;;;3.29;87.53;99853.47;2021432;80;20657;-64
2021/03/17 02:12:24;;;;;;;3.40;3.11;;;;;;;3.28;87.40;99852.59;2021660;80;20316;-64
2021/03/17 02:15:48;;;;;;;2.84;2.64;;;;;;;3.23;87.55;99849.03;2019212;78;20308;-64
2021/03/17 02:19:05;;;;;;;3.25;2.76;;;;;;;3.21;87.85;99847.19;2016421;80;20321;-64
2021/03/17 02:22:35;;;;;;;3.45;3.15;;;;;;;3.25;88.02;99852.50;2016549;80;20956;-64
2021/03/17 02:25:57;;;;;;;3.25;2.95;;;;;;;3.28;88.25;99860.28;2015559;80;20302;-64
2021/03/17 02:29:22;;;;;;;4.18;3.88;;;;;;;3.25;88.33;99856.75;2016608;80;20450;-64
2021/03/17 02:32:32;;;;;;;3.99;3.59;;;;;;;3.26;88.63;99856.81;2019127;77;55105;-64
2021/03/17 02:35:37;;;;;;;3.49;3.19;;;;;;;3.29;88.75;99853.47;2021271;80;20830;-64
2021/03/17 02:38:45;;;;;;;5.03;4.56;;;;;;;3.33;88.80;99856.16;2021687;80;21053;-64
2021/03/17 02:42:13;;;;;;;4.65;4.05;;;;;;;3.40;88.95;99857.22;2022661;80;20979;-64
2021/03/17 02:45:22;;;;;;;4.65;4.01;;;;;;;3.51;88.91;99852.44;2020109;77;20920;-64
2021/03/17 02:48:29;;;;;;;5.97;3.86;;;;;;;3.53;88.87;99849.09;2016415;80;20335;-64
2021/03/17 02:51:43;;;;;;;4.96;4.53;;;;;;;3.55;88.70;99852.56;2016811;80;20197;-64
2021/03/17 02:54:48;;;;;;;4.74;4.30;;;;;;;3.54;88.60;99855.97;2016575;80;20349;-64
2021/03/17 02:57:52;;;;;;;5.14;4.64;;;;;;;3.54;88.51;99855.09;2016862;80;20297;-64
2021/03/17 03:00:55;;;;;;;4.71;4.31;;;;;;;3.50;88.27;99860.97;2017369;77;20340;-64
2021/03/17 03:03:58;;;;;;;4.61;4.21;;;;;;;3.46;88.27;99862.56;2022732;80;20349;-64
2021/03/17 03:07:02;;;;;;;4.34;3.94;;;;;;;3.44;88.28;99869.34;2022706;80;20526;-64
2021/03/17 03:10:07;;;;;;;4.38;3.97;;;;;;;3.41;88.09;99860.66;2023344;80;20303;-64
2021/03/17 03:13:09;;;;;;;5.46;4.91;;;;;;;3.38;88.07;99865.69;2023790;80;20380;-64
2021/03/17 03:16:13;;;;;;;5.28;4.78;;;;;;;3.37;87.91;99867.41;2020784;80;21946;-64
2021/03/17 03:19:17;;;;;;;5.13;4.63;;;;;;;3.36;87.93;99877.63;2017994;80;20823;-64
2021/03/17 03:22:21;;;;;;;5.00;4.50;;;;;;;3.36;87.96;99875.06;2018542;80;20739;-64
2021/03/17 03:25:25;;;;;;;5.38;4.88;;;;;;;3.38;88.02;99873.41;2018703;80;20355;-64
2021/03/17 03:28:27;;;;;;;5.05;4.54;;;;;;;3.36;88.01;99883.63;2018491;80;20931;-64
2021/03/17 03:31:29;;;;;;;5.01;4.59;;;;;;;3.37;88.11;99889.63;2020437;78;20700;-64
2021/03/17 03:34:32;;;;;;;5.47;4.86;;;;;;;3.37;88.17;99895.63;2023617;80;20868;-64
2021/03/17 03:37:35;;;;;;;5.39;4.89;;;;;;;3.40;88.26;99897.41;2025066;80;20316;-64
2021/03/17 03:40:38;;;;;;;5.24;4.74;;;;;;;3.42;88.34;99901.81;2023639;80;20316;-64
2021/03/17 03:43:40;;;;;;;6.14;5.53;;;;;;;3.44;88.33;99897.59;2023785;80;20320;-64
2021/03/17 03:46:46;;;;;;;5.88;5.34;;;;;;;3.48;88.30;99907.13;2019872;77;21143;-64
2021/03/17 03:49:48;;;;;;;7.99;6.61;;;;;;;3.50;88.32;99913.19;2018687;80;20321;-64
2021/03/17 03:52:58;;;;;;;6.96;6.25;;;;;;;3.54;88.31;99912.44;2018824;80;20347;-64
2021/03/17 03:56:06;;;;;;;6.55;5.95;;;;;;;3.55;88.30;99909.06;2018529;80;20330;-64
2021/03/17 03:59:14;;;;;;;7.00;6.25;;;;;;;3.56;88.25;99905.66;2018681;80;20323;-64
2021/03/17 04:02:25;;;;;;;8.55;6.43;;;;;;;3.58;88.34;99898.88;2021276;77;21103;-64
2021/03/17 04:05:35;;;;;;;7.81;6.66;;;;;;;3.57;88.44;99909.09;2022431;80;20641;-64
2021/03/17 04:08:42;;;;;;;8.80;6.86;;;;;;;3.58;88.51;99915.97;2022356;80;20308;-64
2021/03/17 04:11:44;;;;;;;8.02;6.38;;;;;;;3.56;88.40;99926.19;2022062;80;20361;-64
2021/03/17 04:14:48;;;;;;;8.34;7.40;;;;;;;3.56;88.38;99920.19;2021612;80;20328;-64
2021/03/17 04:17:58;;;;;;;9.93;8.14;;;;;;;3.53;88.40;99927.81;2017116;78;24341;-64
2021/03/17 04:21:05;;;;;;;8.86;7.10;;;;;;;3.54;88.50;99930.41;2016705;80;20313;-64
2021/03/17 04:24:08;;;;;;;8.56;7.68;;;;;;;3.53;88.35;99936.38;2017068;80;20369;-64
2021/03/17 04:27:11;;;;;;;8.91;7.53;;;;;;;3.53;88.41;99932.94;2017011;80;20302;-64
2021/03/17 04:30:14;;;;;;;10.44;7.80;;;;;;;3.51;88.37;99935.47;2016060;78;21041;-65
2021/03/17 04:33:17;;;;;;;8.13;7.28;;;;;;;3.51;88.32;99938.03;2016835;80;20412;-64
2021/03/17 04:36:20;;;;;;;9.15;7.86;;;;;;;3.52;88.40;99944.91;2016605;80;20496;-64
2021/03/17 04:39:23;;;;;;;8.75;7.78;;;;;;;3.52;88.31;99942.34;2016678;80;20906;-64
2021/03/17 04:42:25;;;;;;;10.63;7.53;;;;;;;3.53;88.44;99944.06;2020646;80;20361;-64
2021/03/17 04:45:26;;;;;;;10.24;8.25;;;;;;;3.53;88.41;99948.34;2015972;80;20329;-64
2021/03/17 04:48:28;;;;;;;8.48;7.39;;;;;;;3.56;88.34;99956.13;2017374;80;20358;-64
2021/03/17 04:51:32;;;;;;;9.30;7.69;;;;;;;3.58;88.27;99951.91;2016915;80;20326;-64
2021/03/17 04:54:33;;;;;;;11.07;8.36;;;;;;;3.60;88.25;99951.19;2017141;80;20440;-64
2021/03/17 04:57:38;;;;;;;8.68;7.71;;;;;;;3.59;88.08;99962.28;2017286;80;20309;-64
2021/03/17 05:00:42;;;;;;;9.70;7.99;;;;;;;3.59;88.19;99963.94;2016776;77;20409;-64
2021/03/17 05:03:47;;;;;;;8.35;7.19;;;;;;;3.57;88.15;99955.31;2022277;80;20332;-64
2021/03/17 05:06:52;;;;;;;9.84;8.39;;;;;;;3.57;88.11;99965.59;2022288;80;20361;-64
2021/03/17 05:09:55;;;;;;;10.55;7.82;;;;;;;3.60;88.12;99970.84;2022076;80;20776;-64
2021/03/17 05:12:58;;;;;;;9.91;7.85;;;;;;;3.59;88.01;99961.38;2022142;80;20812;-64
2021/03/17 05:16:00;;;;;;;9.20;7.57;;;;;;;3.59;88.00;99956.22;2019654;77;20309;-64
2021/03/17 05:19:05;;;;;;;11.23;8.45;;;;;;;3.59;88.10;99957.13;2016890;80;20393;-64
2021/03/17 05:22:09;;;;;;;10.44;8.40;;;;;;;3.58;88.14;99944.22;2016986;80;20305;-63
2021/03/17 05:25:12;;;;;;;9.20;8.23;;;;;;;3.55;88.17;99945.00;2016384;80;20362;-64
2021/03/17 05:28:17;;;;;;;9.38;8.05;;;;;;;3.58;88.18;99942.53;2019799;80;20324;-64
2021/03/17 05:31:22;;;;;;;8.07;7.10;;;;;;;3.58;88.09;99945.09;2019301;78;20323;-64
2021/03/17 05:34:24;;;;;;;9.95;7.50;;;;;;;3.60;88.05;99940.91;2021814;80;20304;-64
2021/03/17 05:37:26;;;;;;;10.99;8.49;;;;;;;3.59;87.94;99946.88;2021654;80;20478;-63
2021/03/17 05:40:29;;;;;;;8.90;7.49;;;;;;;3.61;87.90;99950.34;2021631;80;21325;-64
2021/03/17 05:43:33;;;;;;;9.29;7.72;;;;;;;3.60;87.95;99956.31;2021964;80;20365;-64
2021/03/17 05:46:35;;;;;;;9.71;7.30;;;;;;;3.63;87.84;99970.94;2018763;78;20327;-64
2021/03/17 05:49:38;;;;;;;9.66;7.49;;;;;;;3.63;87.82;99973.50;2016703;80;20361;-64
2021/03/17 05:52:41;;;;;;;8.46;7.20;;;;;;;3.60;87.83;99974.28;2016968;80;20427;-64
2021/03/17 05:55:44;;;;;;;8.65;7.15;;;;;;;3.60;88.02;99986.25;2016560;80;20609;-63
2021/03/17 05:58:46;;;;;;;8.38;6.94;;;;;;;3.59;88.01;99989.59;2016303;80;20313;-63
2021/03/17 06:01:48;;;;;;;10.26;7.56;;;;;;;3.59;88.10;99990.50;2018572;79;21554;-64
2021/03/17 06:04:50;;;;;;;11.15;7.68;;;;;;;3.59;88.21;99999.88;2021809;80;20316;-63
2021/03/17 06:08:13;;;;;;;10.01;7.56;;;;;;;3.60;88.46;100006.78;2022233;80;20328;-63
2021/03/17 06:11:15;;;;;;;10.09;7.00;;;;;;;3.63;88.38;100009.44;2021992;80;20812;-63
2021/03/17 06:14:20;;;;;;;9.40;7.47;;;;;;;3.64;88.38;100013.75;2021697;80;20329;-63
2021/03/17 06:17:24;;;;;;;9.86;7.47;;;;;;;3.64;88.43;100011.19;2015605;78;23705;-63
2021/03/17 06:20:27;;;;;;;9.64;7.24;;;;;;;3.66;88.46;100016.38;2014772;80;20365;-63
2021/03/17 06:23:29;;;;;;;9.24;7.05;;;;;;;3.64;88.39;100029.16;2015338;80;20346;-63
2021/03/17 06:26:34;;;;;;;11.05;7.11;;;;;;;3.64;88.58;100035.19;2014180;80;20305;-63
2021/03/17 06:29:36;;;;;;;9.82;7.30;;;;;;;3.66;88.64;100031.78;2015339;80;20770;-64
2021/03/17 06:32:38;;;;;;;12.21;7.51;;;;;;;3.68;88.80;100040.41;2014615;77;20309;-64
2021/03/17 06:35:40;;;;;;;9.96;7.63;;;;;;;3.70;88.81;100041.34;2012371;80;20448;-64
2021/03/17 06:38:43;;;;;;;9.06;7.46;;;;;;;3.74;88.74;100040.59;2014639;80;20381;-64
2021/03/17 06:41:52;;;;;;;7.80;6.04;;;;;;;3.76;88.80;100038.97;2014744;80;20562;-64
2021/03/17 06:44:56;;;;;;;7.03;6.32;;;;;;;3.75;88.81;100040.66;2015158;80;20313;-64
2021/03/17 06:48:17;;;;;;;7.54;6.66;;;;;;;3.79;89.01;100044.22;2015424;78;21440;-64
2021/03/17 06:51:21;;;;;;;7.79;6.34;;;;;;;3.82;88.91;100050.31;2016301;80;20338;-63
2021/03/17 06:54:23;;;;;;;8.32;6.49;;;;;;;3.83;88.86;100041.78;2015581;80;20356;-64
2021/03/17 06:57:27;;;;;;;7.26;6.14;;;;;;;3.87;89.02;100043.63;2016354;80;20369;-66
2021/03/17 07:00:32;;;;;;;6.45;5.79;;;;;;;3.92;88.93;100047.22;2015591;78;20448;-65
2021/03/17 07:03:38;;;;;;;6.36;5.61;;;;;;;3.97;88.86;100049.97;2020267;80;20304;-65
2021/03/17 07:06:43;;;;;;;6.76;5.94;;;;;;;4.04;88.76;100048.44;2021116;80;20444;-66
2021/03/17 07:09:58;;;;;;;6.43;5.82;;;;;;;4.07;88.76;100045.97;2020840;80;20326;-71
2021/03/17 07:13:04;;;;;;;6.80;6.16;;;;;;;4.10;88.76;100052.06;2021051;80;20312;-64
2021/03/17 07:16:06;;;;;;;6.19;5.59;;;;;;;4.14;88.67;100045.38;2018258;77;20365;-65
2021/03/17 07:19:09;;;;;;;7.21;5.94;;;;;;;4.18;88.67;100057.47;2015457;80;20330;-66
2021/03/17 07:22:14;;;;;;;6.93;6.28;;;;;;;4.19;88.63;100059.22;2020019;80;20317;-83
2021/03/17 07:25:16;;;;;;;6.56;5.86;;;;;;;4.21;88.54;100061.00;2026627;80;20334;-79
2021/03/17 07:28:17;;;;;;;6.57;5.97;;;;;;;4.25;88.51;100061.97;2028886;80;20309;-79
2021/03/17 07:31:25;;;;;;;6.76;6.11;;;;;;;4.28;88.34;100061.19;2032781;77;25839;-81
2021/03/17 07:34:27;;;;;;;6.76;6.09;;;;;;;4.30;88.37;100069.81;2033338;80;20345;-81
2021/03/17 07:37:29;;;;;;;7.26;6.07;;;;;;;4.33;88.33;100077.66;2033580;80;20304;-78
2021/03/17 07:40:33;;;;;;;6.68;5.97;;;;;;;4.35;88.31;100078.56;2033908;80;20305;-79
2021/03/17 07:43:36;;;;;;;6.78;6.18;;;;;;;4.42;88.19;100075.34;2031874;80;20316;-81
2021/03/17 07:46:41;;;;;;;7.32;6.63;;;;;;;4.46;88.03;100072.91;2035296;80;20277;-81
2021/03/17 07:49:46;;;;;;;6.50;5.80;;;;;;;4.50;87.91;100069.66;2032553;80;20372;-80
2021/03/17 07:52:52;;;;;;;7.34;6.57;;;;;;;4.57;87.90;100070.69;2030183;80;20312;-78
2021/03/17 07:55:56;;;;;;;6.59;5.82;;;;;;;4.66;87.89;100070.06;2026037;80;20330;-79
2021/03/17 07:58:59;;;;;;;7.96;6.54;;;;;;;4.73;87.87;100072.03;2023191;80;20429;-78
2021/03/17 08:02:01;;;;;;;7.18;5.88;;;;;;;4.83;87.68;100072.31;2021593;77;21371;-79
2021/03/17 08:05:04;;;;;;;8.43;5.84;;;;;;;4.90;87.19;100078.53;2026190;80;20447;-84
2021/03/17 08:08:07;;;;;;;8.70;6.68;;;;;;;4.97;86.95;100074.44;2032087;80;20317;-82
2021/03/17 08:11:15;;;;;;;6.94;6.31;;;;;;;5.00;86.69;100067.66;2034126;80;20317;-81
2021/03/17 08:14:18;;;;;;;7.79;6.99;;;;;;;5.01;86.22;100081.41;2031035;80;20317;-80
2021/03/17 08:20:48;;;;;;;7.86;6.89;;;;;;;5.12;85.93;100072.31;2049066;69;20439;-82
2021/03/17 08:23:51;;;;;;;;;;;;;;;5.18;85.79;100080.19;2030988;80;20309;-81
2021/03/17 08:26:52;;;;;;;6.78;6.09;;;;;;;5.20;85.37;100078.53;2029006;80;20052;-78
2021/03/17 08:36:41;;;;;;;7.56;6.79;;;;;;;5.29;84.74;100073.66;2035172;70;20269;-82
2021/03/17 08:39:45;;;;;;;7.63;6.47;;;;;;;5.34;84.75;100073.78;2028189;80;20395;-81
2021/03/17 08:42:48;;;;;;;7.04;6.34;;;;;;;5.40;84.75;100071.38;2025700;80;20320;-82
2021/03/17 08:45:50;;;;;;;7.53;6.72;;;;;;;5.51;84.66;100067.38;2023100;80;20325;-80
2021/03/17 08:48:55;;;;;;;7.20;6.50;;;;;;;5.64;84.27;100071.16;2022577;80;20324;-81
2021/03/17 08:51:57;;;;;;;8.04;6.76;;;;;;;5.81;84.08;100066.44;2024878;80;20417;-81
2021/03/17 08:55:00;;;;;;;7.49;6.75;;;;;;;5.92;83.70;100068.47;2022944;80;20321;-80
2021/03/17 08:58:06;;;;;;;6.89;6.09;;;;;;;6.09;83.50;100066.31;2025085;80;20197;-81
2021/03/17 09:01:08;;;;;;;6.93;6.15;;;;;;;6.17;81.95;100072.53;2027625;80;20323;-81
2021/03/17 09:04:47;;;;;;;7.68;6.63;;;;;;;6.34;81.31;100072.94;2026441;80;20864;-81
2021/03/17 09:08:04;;;;;;;7.05;6.35;;;;;;;6.50;80.07;100061.28;2022609;80;20339;-81
2021/03/17 09:11:05;;;;;;;6.50;5.49;;;;;;;6.66;80.00;100061.66;2023330;80;20318;-82
2021/03/17 09:14:08;;;;;;;7.47;6.40;;;;;;;6.72;79.24;100066.06;2023072;80;20321;-81
2021/03/17 09:17:25;;;;;;;6.14;5.54;;;;;;;6.66;78.65;100066.81;2020122;77;23851;-81
2021/03/17 09:20:32;;;;;;;5.80;5.20;;;;;;;6.56;77.92;100075.16;2022045;80;20359;-80
2021/03/17 09:23:39;;;;;;;6.20;5.64;;;;;;;6.45;77.99;100076.63;2021899;80;21093;-81
2021/03/17 09:26:40;;;;;;;6.03;5.43;;;;;;;6.40;78.62;100078.22;2024087;80;20328;-82
2021/03/17 09:29:48;;;;;;;5.07;4.60;;;;;;;6.35;78.64;100077.25;2022691;80;20411;-81
2021/03/17 09:32:59;;;;;;;4.75;4.32;;;;;;;6.34;78.68;100072.94;2017117;80;955920;-81
2021/03/17 09:36:06;;;;;;;4.28;3.88;;;;;;;6.44;78.62;100071.44;2026988;80;20835;-81
2021/03/17 09:39:08;;;;;;;4.07;3.70;;;;;;;6.55;78.18;100063.09;2029094;80;20321;-80
2021/03/17 09:42:17;;;;;;;4.19;3.89;;;;;;;6.77;78.16;100069.59;2023409;80;20317;-80
2021/03/17 09:45:25;;;;;;;3.95;3.54;;;;;;;6.93;78.02;100068.22;2023957;80;20317;-80
2021/03/17 09:48:27;;;;;;;3.25;2.95;;;;;;;7.01;77.42;100065.81;2025505;80;20927;-80
2021/03/17 09:51:36;;;;;;;4.03;3.34;;;;;;;7.03;76.20;100058.97;2021358;80;20707;-80
2021/03/17 09:54:38;;;;;;;4.99;3.28;;;;;;;7.15;75.84;100054.91;2020082;80;20519;-79
2021/03/17 09:57:40;;;;;;;2.76;2.39;;;;;;;7.57;74.86;100062.63;2024535;80;20168;-80
2021/03/17 10:00:47;;;;;;;3.91;3.05;;;;;;;8.01;72.86;100054.75;2017438;77;20342;-78
2021/03/17 10:03:50;;;;;;;2.55;2.34;;;;;;;8.38;71.36;100050.19;2018331;80;20337;-81
2021/03/17 10:06:52;;;;;;;2.46;2.26;;;;;;;8.60;70.01;100049.66;2019876;80;20748;-80
2021/03/17 10:09:56;;;;;;;1.70;1.60;;;;;;;8.97;70.25;100053.59;2019469;80;20357;-79
2021/03/17 10:12:58;;;;;;;1.91;1.75;;;;;;;9.13;68.65;100054.66;2016005;80;20337;-80
2021/03/17 10:16:00;;;;;;;2.21;1.80;;;;;;;8.89;66.38;100049.19;2021544;77;131629;-82
2021/03/17 10:19:03;;;;;;;2.14;1.94;;;;;;;8.62;66.79;100063.50;2031398;80;20171;-83
2021/03/17 10:22:21;;;;;;;1.73;1.55;;;;;;;8.42;67.47;100055.44;2032481;80;20408;-82
2021/03/17 10:25:26;;;;;;;1.41;1.31;;;;;;;8.16;68.16;100044.66;2034072;80;20339;-81
2021/03/17 10:28:28;;;;;;;2.00;1.90;;;;;;;7.97;68.68;100044.34;2026207;80;20378;-81
2021/03/17 10:31:33;;;;;;;1.41;1.31;;;;;;;7.94;69.31;100046.88;2029867;77;20382;-79
2021/03/17 10:34:36;;;;;;;1.35;1.20;;;;;;;7.87;68.99;100041.59;2018777;80;20463;-81
2021/03/17 10:37:39;;;;;;;1.75;1.10;;;;;;;7.77;68.11;100038.84;2020575;80;20337;-81
2021/03/17 10:40:40;;;;;;;1.36;1.26;;;;;;;7.57;68.15;100043.66;2022677;80;20320;-81
2021/03/17 10:43:42;;;;;;;1.14;1.00;;;;;;;7.37;68.79;100047.59;2031645;80;20320;-83
2021/03/17 10:47:04;;;;;;;0.94;0.94;;;;;;;7.28;70.30;100045.69;2028273;80;20369;-82
2021/03/17 10:50:09;;;;;;;0.93;0.93;;;;;;;7.11;71.51;100047.06;2028395;80;20444;-82
2021/03/17 10:53:21;;;;;;;1.81;0.77;;;;;;;7.00;71.73;100040.81;2024517;80;20394;-82
2021/03/17 10:56:23;;;;;;;1.08;0.98;;;;;;;6.93;72.22;100042.41;2022598;80;20353;-78
2021/03/17 10:59:31;;;;;;;1.04;1.00;;;;;;;6.99;73.28;100042.53;2019202;80;20321;-85
2021/03/17 11:02:33;;;;;;;0.98;0.98;;;;;;;7.00;73.83;100039.09;2016659;80;23994;-77
2021/03/17 11:05:35;;;;;;;0.70;0.70;;;;;;;7.08;74.03;100041.84;2013073;80;20430;-77
2021/03/17 11:08:37;;;;;;;0.80;0.80;;;;;;;7.21;74.32;100043.84;2015363;80;20305;-78
2021/03/17 11:11:54;;;;;;;2.13;0.91;;;;;;;7.25;74.02;100033.59;2015953;80;20405;-77
2021/03/17 11:14:55;;;;;;;0.70;0.70;;;;;;;7.22;73.89;100041.28;2015150;80;20317;-78
2021/03/17 11:17:58;;;;;;;0.50;0.50;;;;;;;7.18;72.53;100036.91;2015188;77;22297;-77
2021/03/17 11:21:05;;;;;;;0.69;0.69;;;;;;;7.22;72.95;100041.28;2014581;80;20333;-78
2021/03/17 11:24:16;;;;;;;0.59;0.59;;;;;;;7.30;72.24;100037.97;2016807;80;20354;-80
2021/03/17 11:27:36;;;;;;;0.61;0.61;;;;;;;7.22;70.95;100037.84;2023846;80;20317;-80
2021/03/17 11:30:52;;;;;;;0.60;0.60;;;;;;;7.18;71.71;100034.34;2024887;77;31301;-80
2021/03/17 11:33:54;;;;;;;0.40;0.40;;;;;;;7.12;71.74;100034.19;2027816;80;20467;-80
2021/03/17 11:36:56;;;;;;;0.50;0.50;;;;;;;7.02;70.88;100023.66;2027718;80;20310;-80
2021/03/17 11:39:58;;;;;;;0.39;0.38;;;;;;;6.95;71.00;100020.94;2024577;80;20317;-82
2021/03/17 11:43:24;;;;;;;0.43;0.43;;;;;;;7.04;72.93;100027.16;2023574;80;20572;-79
2021/03/17 11:46:26;;;;;;;0.40;0.40;;;;;;;7.07;69.69;100022.03;2017240;78;21760;-79
2021/03/17 11:49:28;;;;;;;0.44;0.40;;;;;;;7.50;71.55;100015.97;2018005;80;20342;-79
2021/03/17 11:52:29;;;;;;;0.30;0.30;;;;;;;8.01;71.72;100012.50;2018121;80;20409;-79
2021/03/17 11:55:33;;;;;;;0.50;0.30;;;;;;;8.38;68.96;100001.91;2016351;80;20329;-78
2021/03/17 11:58:36;;;;;;;0.30;0.30;;;;;;;8.39;66.75;99998.47;2017729;80;20443;-81
2021/03/17 12:01:38;;;;;;;0.54;0.22;;;;;;;8.33;66.12;99998.34;2018680;78;20830;-79
2021/03/17 12:04:40;;;;;;;0.29;0.29;;;;;;;8.30;66.29;99977.63;2017563;80;20328;-79
2021/03/17 12:07:47;;;;;;;0.20;0.20;;;;;;;8.41;66.18;99986.41;2017373;80;20339;-80
2021/03/17 12:10:51;;;;;;;0.30;0.30;;;;;;;8.87;65.53;99970.63;2017439;80;20746;-80
2021/03/17 12:13:53;;;;;;;0.45;0.20;;;;;;;9.45;65.28;99963.44;2018321;80;21100;-80
2021/03/17 12:16:55;;;;;;;0.21;0.21;;;;;;;9.82;63.14;99962.03;2021788;77;27933;-80
2021/03/17 12:19:57;;;;;;;0.84;0.30;;;;;;;10.21;62.70;99959.75;2019071;80;20179;-79
2021/03/17 12:23:00;;;;;;;0.60;0.28;;;;;;;10.66;62.42;99947.88;2025822;80;20216;-84
2021/03/17 12:26:03;;;;;;;0.30;0.30;;;;;;;11.06;60.28;99953.19;2032173;80;20745;-83
2021/03/17 12:29:05;;;;;;;0.54;0.20;;;;;;;11.30;56.74;99942.84;2029649;80;20212;-82
2021/03/17 12:32:07;;;;;;;0.30;0.30;;;;;;;11.37;56.43;99942.00;2031289;77;22497;-82
2021/03/17 12:35:12;;;;;;;1.33;0.22;;;;;;;11.12;54.91;99941.06;2031053;80;20492;-82
2021/03/17 12:38:14;;;;;;;0.30;0.30;;;;;;;10.75;55.70;99931.44;2032883;80;20183;-83
2021/03/17 12:41:16;;;;;;;0.19;0.19;;;;;;;10.37;55.35;99929.56;2033369;80;20165;-82
2021/03/17 12:44:17;;;;;;;0.44;0.34;;;;;;;10.00;57.65;99925.84;2031411;80;20187;-82
2021/03/17 12:47:19;;;;;;;0.54;0.54;;;;;;;9.83;57.72;99932.66;2029807;77;20476;-82
2021/03/17 12:50:24;;;;;;;0.20;0.20;;;;;;;9.51;58.35;99932.38;2032252;80;20184;-82
2021/03/17 12:53:25;;;;;;;0.66;0.24;;;;;;;9.39;58.51;99921.06;2028397;80;20652;-81
2021/03/17 12:56:27;;;;;;;1.05;0.81;;;;;;;9.31;57.60;99919.25;2026370;80;20708;-81
2021/03/17 12:59:30;;;;;;;0.50;0.50;;;;;;;9.32;59.61;99919.25;2029552;80;20172;-82
2021/03/17 13:02:31;;;;;;;0.30;0.30;;;;;;;9.52;60.08;99908.22;2030005;77;20212;-82
2021/03/17 13:05:34;;;;;;;0.21;0.21;;;;;;;9.81;59.38;99909.28;2030023;80;20290;-82
2021/03/17 13:08:38;;;;;;;0.30;0.30;;;;;;;9.72;57.98;99913.56;2030162;80;20255;-82
2021/03/17 13:11:40;;;;;;;1.34;0.29;;;;;;;9.48;58.07;99912.50;2032898;80;20749;-83
2021/03/17 13:14:42;;;;;;;0.29;0.20;;;;;;;9.23;58.67;99905.38;2026568;80;20198;-83
2021/03/17 13:17:44;;;;;;;0.30;0.30;;;;;;;8.96;59.27;99922.38;2019632;77;20444;-84
2021/03/17 13:20:46;;;;;;;0.20;0.20;;;;;;;8.62;58.73;99922.88;2019742;80;20343;-77
2021/03/17 13:23:48;;;;;;;0.30;0.20;;;;;;;8.18;61.77;99936.03;2016567;80;20629;-79
2021/03/17 13:26:49;;;;;;;0.39;0.20;;;;;;;7.81;64.42;99926.88;2019734;80;20595;-82
2021/03/17 13:29:55;;;;;;;0.30;0.30;;;;;;;7.54;65.80;99933.38;2027410;80;20901;-81
2021/03/17 13:32:57;;;;;;;2.31;0.30;;;;;;;7.48;68.22;99925.50;2021437;77;20308;-81
2021/03/17 13:35:59;;;;;;;0.25;0.25;;;;;;;7.55;70.10;99932.53;2018111;80;21069;-80
2021/03/17 13:39:03;;;;;;;1.21;0.32;;;;;;;7.60;70.27;99932.59;2018196;80;20321;-80
2021/03/17 13:42:05;;;;;;;0.13;0.13;;;;;;;7.43;69.27;99941.78;2023107;80;20378;-83
2021/03/17 13:45:10;;;;;;;0.46;0.30;;;;;;;7.33;69.41;99951.06;2030676;80;20317;-80
2021/03/17 13:48:14;;;;;;;0.59;0.50;;;;;;;7.25;70.78;99956.13;2024236;78;21680;-83
2021/03/17 13:51:15;;;;;;;0.70;0.40;;;;;;;7.01;69.75;99960.84;2030947;80;20317;-84
2021/03/17 13:54:17;;;;;;;0.34;0.30;;;;;;;6.75;70.95;99968.06;2033416;80;20329;-83
2021/03/17 13:57:19;;;;;;;0.66;0.52;;;;;;;6.61;71.81;99966.91;2035387;80;20335;-83
2021/03/17 14:00:22;;;;;;;0.20;0.20;;;;;;;6.38;72.28;99970.72;2030591;77;22988;-84
2021/03/17 14:03:24;;;;;;;0.80;0.30;;;;;;;6.15;73.66;99967.63;2032398;80;20359;-83
2021/03/17 14:06:26;;;;;;;1.35;0.52;;;;;;;6.09;74.66;99980.38;2029312;80;20307;-83
2021/03/17 14:09:28;;;;;;;0.99;0.69;;;;;;;6.03;76.24;99971.66;2029191;80;20898;-83
2021/03/17 14:12:30;;;;;;;0.49;0.49;;;;;;;5.95;76.59;99960.31;2030391;80;20334;-82
2021/03/17 14:15:32;;;;;;;0.40;0.40;;;;;;;5.94;76.98;99956.00;2033243;80;20321;-80
2021/03/17 14:18:34;;;;;;;1.04;0.60;;;;;;;6.02;77.57;99951.00;2028071;80;20443;-83
2021/03/17 14:21:37;;;;;;;0.80;0.70;;;;;;;6.20;77.39;99943.69;2023614;80;20328;-80
2021/03/17 14:24:38;;;;;;;0.50;0.50;;;;;;;6.44;77.70;99942.47;2020896;80;20321;-81
2021/03/17 14:27:40;;;;;;;0.46;0.46;;;;;;;6.77;76.69;99947.44;2023364;80;20330;-81
2021/03/17 14:30:42;;;;;;;0.46;0.46;;;;;;;7.03;75.88;99942.78;2027497;80;20333;-82
2021/03/17 14:33:44;;;;;;;0.54;0.54;;;;;;;7.15;74.11;99943.00;2026887;80;20579;-83
2021/03/17 14:36:46;;;;;;;1.01;0.47;;;;;;;7.31;73.33;99944.13;2031149;80;20317;-83
2021/03/17 14:39:47;;;;;;;1.81;0.70;;;;;;;7.48;73.36;99946.16;2031989;80;20297;-83
2021/03/17 14:42:49;;;;;;;0.54;0.54;;;;;;;7.59;72.92;99938.59;2032459;80;20339;-80
2021/03/17 14:45:51;;;;;;;2.30;1.46;;;;;;;7.79;73.39;99944.09;2029240;78;25360;-85